createdAt,value
2023-05-16T00:00:03.074Z,0
2023-05-16T00:15:02.359Z,0
2023-05-16T00:30:03.058Z,0
2023-05-16T00:45:02.276Z,0
2023-05-16T01:00:02.697Z,0
2023-05-16T01:15:03.142Z,0
2023-05-16T01:30:02.557Z,0
2023-05-16T01:45:03.091Z,0
2023-05-16T02:00:02.452Z,0
2023-05-16T02:15:03.086Z,0
2023-05-16T02:30:02.387Z,0
2023-05-16T02:45:02.729Z,0
2023-05-16T03:00:03.193Z,0
2023-05-16T03:15:02.612Z,0
2023-05-16T03:30:03.129Z,0
2023-05-16T03:45:02.478Z,0
2023-05-16T04:00:03.096Z,4
2023-05-16T04:15:02.380Z,15
2023-05-16T04:30:02.845Z,32
2023-05-16T04:45:02.252Z,37
2023-05-16T05:00:02.683Z,88
2023-05-16T05:15:03.138Z,142
2023-05-16T05:30:02.548Z,176
2023-05-16T05:45:03.143Z,133
2023-05-16T06:00:02.412Z,257
2023-05-16T06:15:02.868Z,304
2023-05-16T06:30:02.320Z,297
2023-05-16T06:45:02.774Z,430
2023-05-16T07:00:03.221Z,144
2023-05-16T07:15:02.675Z,223
2023-05-16T07:30:03.159Z,462
2023-05-16T07:45:02.515Z,170
2023-05-16T08:00:03.154Z,644
2023-05-16T08:15:02.398Z,281
2023-05-16T08:30:02.844Z,150
2023-05-16T08:45:02.297Z,369
2023-05-16T09:00:02.687Z,161
2023-05-16T09:15:03.173Z,733
2023-05-16T09:30:02.606Z,678
2023-05-16T09:45:03.195Z,767
2023-05-16T10:00:02.469Z,288
2023-05-16T10:15:02.895Z,884
2023-05-16T10:30:02.331Z,189
2023-05-16T10:45:05.834Z,282
2023-05-16T11:00:02.406Z,149
2023-05-16T11:15:02.645Z,437
2023-05-16T11:30:04.264Z,190
2023-05-16T11:45:02.534Z,762
2023-05-16T12:00:03.104Z,757
2023-05-16T12:15:02.414Z,775
2023-05-16T12:30:02.867Z,265
2023-05-16T12:45:02.302Z,169
2023-05-16T13:00:02.721Z,205
2023-05-16T13:15:03.226Z,718
2023-05-16T13:30:02.599Z,799
2023-05-16T13:45:03.221Z,537
2023-05-16T14:15:02.937Z,123
2023-05-16T14:30:02.393Z,206
2023-05-16T14:45:02.796Z,237
2023-05-16T15:00:03.306Z,146
2023-05-16T15:15:02.661Z,513
2023-05-16T15:30:03.294Z,183
2023-05-16T15:45:02.544Z,93
2023-05-16T16:00:03.183Z,204
2023-05-16T16:15:02.508Z,107
2023-05-16T16:30:02.869Z,70
2023-05-16T16:45:02.330Z,74
2023-05-16T17:00:02.753Z,59
2023-05-16T17:15:03.280Z,34
2023-05-16T17:30:02.606Z,35
2023-05-16T17:45:03.252Z,37
2023-05-16T18:00:02.496Z,18
2023-05-16T18:15:02.974Z,14
2023-05-16T18:30:02.624Z,10
2023-05-16T18:45:02.828Z,6
2023-05-16T19:00:03.271Z,0
2023-05-16T19:15:02.684Z,0
2023-05-16T19:30:03.277Z,0
2023-05-16T19:45:02.559Z,0
2023-05-16T20:00:03.024Z,0
2023-05-16T20:15:02.484Z,0
2023-05-16T20:30:02.894Z,0
2023-05-16T20:45:02.371Z,0
2023-05-16T21:00:02.773Z,0
2023-05-16T21:15:03.282Z,0
2023-05-16T21:30:02.682Z,0
2023-05-16T21:45:03.305Z,0
2023-05-16T22:00:02.527Z,0
2023-05-16T22:30:02.411Z,0
2023-05-16T22:45:02.854Z,0
2023-05-16T23:00:02.318Z,0
2023-05-16T23:15:02.737Z,0
2023-05-16T23:30:03.329Z,0
2023-05-16T23:45:02.605Z,0
